createdAt,value
2022-11-05T00:02:16.521Z,50.28
2022-11-05T00:05:01.973Z,47.00
2022-11-05T00:07:48.956Z,44.38
2022-11-05T00:10:18.969Z,43.03
2022-11-05T00:13:04.032Z,39.58
2022-11-05T00:15:48.963Z,39.00
2022-11-05T00:18:17.836Z,38.70
2022-11-05T00:20:45.414Z,43.78
2022-11-05T00:23:30.578Z,46.25
2022-11-05T00:25:59.088Z,47.70
2022-11-05T00:28:26.916Z,46.95
2022-11-05T00:30:54.422Z,42.35
2022-11-05T00:33:23.315Z,45.72
2022-11-05T00:35:50.797Z,43.72
2022-11-05T00:38:18.313Z,39.17
2022-11-05T00:40:45.921Z,46.72
2022-11-05T00:43:30.781Z,45.03
2022-11-05T00:45:58.394Z,52.40
2022-11-05T00:48:44.814Z,43.33
2022-11-05T00:51:12.293Z,39.22
2022-11-05T00:53:39.861Z,47.95
2022-11-05T00:56:07.619Z,43.90
2022-11-05T00:58:35.123Z,41.53
2022-11-05T01:01:02.986Z,46.03
2022-11-05T01:03:32.857Z,40.55
2022-11-05T01:06:07.516Z,41.75
2022-11-05T01:08:35.049Z,43.42
2022-11-05T01:11:08.503Z,40.92
2022-11-05T01:13:36.012Z,37.63
2022-11-05T01:16:06.518Z,42.05
2022-11-05T01:18:35.439Z,38.70
2022-11-05T01:21:10.602Z,36.20
2022-11-05T01:23:38.117Z,39.22
2022-11-05T01:26:06.315Z,37.10
2022-11-05T01:28:34.252Z,35.35
2022-11-05T01:31:01.738Z,40.88
2022-11-05T01:33:29.351Z,39.53
2022-11-05T01:35:58.231Z,37.80
2022-11-05T01:38:25.820Z,36.60
2022-11-05T01:40:53.606Z,43.15
2022-11-05T01:43:22.306Z,43.63
2022-11-05T01:45:51.124Z,35.83
2022-11-05T01:48:21.995Z,35.42
2022-11-05T01:50:52.761Z,37.97
2022-11-05T01:53:24.032Z,35.53
2022-11-05T01:55:54.515Z,36.20
2022-11-05T01:58:23.646Z,32.78
2022-11-05T02:00:51.645Z,38.47
2022-11-05T02:03:20.775Z,52.25
2022-11-05T02:05:49.212Z,37.85
2022-11-05T02:08:19.451Z,32.97
2022-11-05T02:10:48.584Z,38.28
2022-11-05T02:13:16.118Z,32.90
2022-11-05T02:15:46.351Z,33.63
2022-11-05T02:18:16.657Z,36.03
2022-11-05T02:20:52.041Z,30.60
2022-11-05T02:23:29.836Z,38.25
2022-11-05T02:26:11.840Z,35.67
2022-11-05T02:28:50.941Z,34.83
2022-11-05T02:31:22.417Z,32.10
2022-11-05T02:33:57.220Z,35.85
2022-11-05T02:36:35.985Z,38.70
2022-11-05T02:39:11.538Z,41.40
2022-11-05T02:41:42.554Z,37.35
2022-11-05T02:44:16.042Z,35.95
2022-11-05T02:46:46.988Z,39.63
2022-11-05T02:49:18.991Z,37.03
2022-11-05T02:51:49.184Z,43.42
2022-11-05T02:54:18.839Z,43.22
2022-11-05T02:56:48.235Z,43.40
2022-11-05T02:59:15.765Z,41.53
2022-11-05T03:01:44.856Z,37.63
2022-11-05T03:04:15.557Z,36.45
2022-11-05T03:06:49.505Z,39.42
2022-11-05T03:09:29.900Z,31.08
2022-11-05T03:12:02.735Z,35.20
2022-11-05T03:14:37.202Z,38.22
2022-11-05T03:17:08.989Z,28.63
2022-11-05T03:19:40.701Z,33.25
2022-11-05T03:22:12.245Z,34.33
2022-11-05T03:24:42.050Z,26.40
2022-11-05T03:27:11.323Z,41.85
2022-11-05T03:29:40.082Z,37.28
2022-11-05T03:32:09.112Z,41.88
2022-11-05T03:34:39.977Z,54.13
2022-11-05T03:37:08.553Z,50.75
2022-11-05T03:39:39.025Z,30.92
2022-11-05T03:42:08.446Z,43.03
2022-11-05T03:44:37.326Z,49.85
2022-11-05T03:47:06.769Z,41.15
2022-11-05T03:49:36.557Z,36.33
2022-11-05T03:52:10.616Z,37.95
2022-11-05T03:54:38.409Z,42.75
2022-11-05T03:57:07.417Z,34.95
2022-11-05T03:59:40.561Z,26.48
2022-11-05T04:02:08.394Z,32.78
2022-11-05T04:04:36.262Z,37.88
2022-11-05T04:07:21.160Z,37.58
2022-11-05T04:10:07.391Z,35.45
2022-11-05T04:12:52.834Z,30.20
2022-11-05T04:15:20.373Z,37.00
2022-11-05T04:17:46.941Z,28.02
2022-11-05T04:20:32.061Z,51.30
2022-11-05T04:23:17.722Z,30.40
2022-11-05T04:25:46.615Z,32.60
2022-11-05T04:28:14.568Z,33.60
2022-11-05T04:30:41.059Z,40.15
2022-11-05T04:33:09.602Z,26.20
2022-11-05T04:35:37.959Z,28.67
2022-11-05T04:38:05.884Z,34.50
2022-11-05T04:40:33.596Z,29.52
2022-11-05T04:43:02.549Z,26.77
2022-11-05T04:45:33.042Z,31.50
2022-11-05T04:48:00.634Z,31.15
2022-11-05T04:50:28.153Z,32.05
2022-11-05T04:52:55.832Z,35.67
2022-11-05T04:55:23.360Z,33.80
2022-11-05T04:57:51.389Z,30.75
2022-11-05T05:00:20.901Z,31.13
2022-11-05T05:02:48.812Z,33.83
2022-11-05T05:05:16.613Z,27.38
2022-11-05T05:07:44.181Z,29.30
2022-11-05T05:10:12.075Z,26.65
2022-11-05T05:12:39.673Z,28.85
2022-11-05T05:15:07.658Z,30.80
2022-11-05T05:17:38.806Z,26.98
2022-11-05T05:20:23.987Z,31.60
2022-11-05T05:22:54.825Z,29.60
2022-11-05T05:25:22.954Z,31.23
2022-11-05T05:27:50.502Z,26.83
2022-11-05T05:30:18.061Z,26.33
2022-11-05T05:32:47.011Z,26.70
2022-11-05T05:35:14.525Z,27.08
2022-11-05T05:37:42.126Z,30.98
2022-11-05T05:40:10.178Z,27.88
2022-11-05T05:42:42.733Z,27.38
2022-11-05T05:45:11.281Z,28.90
2022-11-05T05:47:38.762Z,25.70
2022-11-05T05:50:08.006Z,32.05
2022-11-05T05:52:35.513Z,32.22
2022-11-05T05:55:02.981Z,32.63
2022-11-05T05:57:30.534Z,35.28
2022-11-05T05:59:58.143Z,37.05
2022-11-05T06:02:25.819Z,31.25
2022-11-05T06:04:53.492Z,32.50
2022-11-05T06:07:22.345Z,30.38
2022-11-05T06:09:49.927Z,29.42
2022-11-05T06:12:17.384Z,27.33
2022-11-05T06:14:44.917Z,28.80
2022-11-05T06:17:12.501Z,30.13
2022-11-05T06:19:40.774Z,29.38
2022-11-05T06:22:08.380Z,30.73
2022-11-05T06:24:37.378Z,26.38
2022-11-05T06:27:04.930Z,27.60
2022-11-05T06:29:32.505Z,27.75
2022-11-05T06:32:00.085Z,26.85
2022-11-05T06:34:27.570Z,31.08
2022-11-05T06:36:55.109Z,25.25
2022-11-05T06:39:22.684Z,30.77
2022-11-05T06:42:16.483Z,31.15
2022-11-05T06:44:39.006Z,27.15
2022-11-05T06:47:06.774Z,26.70
2022-11-05T06:49:34.278Z,27.33
2022-11-05T06:52:01.769Z,23.95
2022-11-05T06:54:29.296Z,23.35
2022-11-05T06:56:58.166Z,29.75
2022-11-05T06:59:25.727Z,24.98
2022-11-05T07:01:53.452Z,26.48
2022-11-05T07:04:21.050Z,23.65
2022-11-05T07:06:48.558Z,29.58
2022-11-05T07:09:16.172Z,32.97
2022-11-05T07:11:43.629Z,29.55
2022-11-05T07:14:12.506Z,26.27
2022-11-05T07:16:39.981Z,27.67
2022-11-05T07:19:07.498Z,33.95
2022-11-05T07:21:35.018Z,32.78
2022-11-05T07:24:02.721Z,28.95
2022-11-05T07:26:34.408Z,28.63
2022-11-05T07:29:02.216Z,26.42
2022-11-05T07:31:31.283Z,24.35
2022-11-05T07:33:59.547Z,26.35
2022-11-05T07:36:27.245Z,24.25
2022-11-05T07:38:59.922Z,30.85
2022-11-05T07:41:27.971Z,24.77
2022-11-05T07:43:55.545Z,29.98
2022-11-05T07:46:23.017Z,35.28
2022-11-05T07:48:51.869Z,27.83
2022-11-05T07:51:19.325Z,30.45
2022-11-05T07:53:48.292Z,32.05
2022-11-05T07:56:15.818Z,25.23
2022-11-05T07:58:43.366Z,29.58
2022-11-05T08:01:11.072Z,29.70
2022-11-05T08:03:38.734Z,27.33
2022-11-05T08:06:07.760Z,28.35
2022-11-05T08:08:35.426Z,28.25
2022-11-05T08:11:04.112Z,24.75
2022-11-05T08:13:31.603Z,26.25
2022-11-05T08:15:59.548Z,30.45
2022-11-05T08:18:31.397Z,30.80
2022-11-05T08:21:00.034Z,25.80
2022-11-05T08:23:29.731Z,30.77
2022-11-05T08:25:57.909Z,28.92
2022-11-05T08:28:26.333Z,30.25
2022-11-05T08:30:54.649Z,29.35
2022-11-05T08:33:22.408Z,40.20
2022-11-05T08:35:50.211Z,41.47
2022-11-05T08:38:18.345Z,35.10
2022-11-05T08:40:55.150Z,30.50
2022-11-05T08:43:22.654Z,31.90
2022-11-05T08:45:50.584Z,29.80
2022-11-05T08:48:19.121Z,24.65
2022-11-05T08:50:47.316Z,27.50
2022-11-05T08:53:15.197Z,30.25
2022-11-05T08:55:43.958Z,27.10
2022-11-05T08:58:15.196Z,28.00
2022-11-05T09:00:43.472Z,28.42
2022-11-05T09:03:11.581Z,32.90
2022-11-05T09:05:39.944Z,41.25
2022-11-05T09:08:08.331Z,29.90
2022-11-05T09:10:35.976Z,32.55
2022-11-05T09:13:04.172Z,32.63
2022-11-05T09:15:33.447Z,34.80
2022-11-05T09:18:02.086Z,29.90
2022-11-05T09:20:29.848Z,32.55
2022-11-05T09:22:57.372Z,34.03
2022-11-05T09:25:24.936Z,31.50
2022-11-05T09:27:52.431Z,29.65
2022-11-05T09:30:19.906Z,30.08
2022-11-05T09:32:48.726Z,32.55
2022-11-05T09:35:16.289Z,33.80
2022-11-05T09:37:43.761Z,29.98
2022-11-05T09:40:16.709Z,30.17
2022-11-05T09:42:46.846Z,32.83
2022-11-05T09:45:17.074Z,32.83
2022-11-05T09:47:46.977Z,33.45
2022-11-05T09:50:17.209Z,31.08
2022-11-05T09:52:44.751Z,26.63
2022-11-05T09:55:18.349Z,32.58
2022-11-05T09:57:47.365Z,34.15
2022-11-05T10:00:16.937Z,37.63
2022-11-05T10:02:48.127Z,30.65
2022-11-05T10:05:17.412Z,30.90
2022-11-05T10:07:46.386Z,29.63
2022-11-05T10:10:23.208Z,30.92
2022-11-05T10:12:52.637Z,27.73
2022-11-05T10:15:22.603Z,29.17
2022-11-05T10:17:50.875Z,24.55
2022-11-05T10:20:23.425Z,30.98
2022-11-05T10:22:51.169Z,25.70
2022-11-05T10:25:19.868Z,26.25
2022-11-05T10:27:53.308Z,26.02
2022-11-05T10:30:21.059Z,27.50
2022-11-05T10:32:49.368Z,22.80
2022-11-05T10:35:18.719Z,26.23
2022-11-05T10:37:47.730Z,22.65
2022-11-05T10:40:17.225Z,26.88
2022-11-05T10:42:50.273Z,25.42
2022-11-05T10:45:23.778Z,34.95
2022-11-05T10:47:59.101Z,25.58
2022-11-05T10:50:28.043Z,29.50
2022-11-05T10:52:59.247Z,28.13
2022-11-05T10:55:29.117Z,24.85
2022-11-05T10:58:07.580Z,26.70
2022-11-05T11:00:35.731Z,28.95
2022-11-05T11:03:04.316Z,24.42
2022-11-05T11:05:33.519Z,26.90
2022-11-05T11:08:03.735Z,24.08
2022-11-05T11:10:32.733Z,24.30
2022-11-05T11:13:00.690Z,26.83
2022-11-05T11:15:29.576Z,25.70
2022-11-05T11:17:57.305Z,25.92
2022-11-05T11:20:26.366Z,25.10
2022-11-05T11:23:01.114Z,23.83
2022-11-05T11:25:30.943Z,27.90
2022-11-05T11:28:02.399Z,27.73
2022-11-05T11:30:30.012Z,21.50
2022-11-05T11:33:00.030Z,24.70
2022-11-05T11:35:27.674Z,24.98
2022-11-05T11:37:56.352Z,23.13
2022-11-05T11:40:25.389Z,24.63
2022-11-05T11:42:55.851Z,25.88
2022-11-05T11:45:26.609Z,28.20
2022-11-05T11:47:56.255Z,29.83
2022-11-05T11:50:34.090Z,21.63
2022-11-05T11:53:17.868Z,23.05
2022-11-05T11:55:58.171Z,24.57
2022-11-05T11:58:36.960Z,22.02
2022-11-05T12:01:10.859Z,22.13
2022-11-05T12:03:40.846Z,22.05
2022-11-05T12:06:25.332Z,23.25
2022-11-05T12:09:05.167Z,28.63
2022-11-05T12:11:37.848Z,24.00
2022-11-05T12:14:10.949Z,23.73
2022-11-05T12:16:59.227Z,26.98
2022-11-05T12:19:32.497Z,21.83
2022-11-05T12:22:04.026Z,21.30
2022-11-05T12:24:38.486Z,28.25
2022-11-05T12:27:11.378Z,35.78
2022-11-05T12:29:45.680Z,27.73
2022-11-05T12:34:46.073Z,26.08
2022-11-05T12:37:16.949Z,34.63
2022-11-05T12:39:46.597Z,29.98
2022-11-05T12:42:20.297Z,27.38
2022-11-05T12:45:01.675Z,24.00
2022-11-05T12:47:38.060Z,31.17
2022-11-05T12:50:12.464Z,31.77
2022-11-05T12:52:54.316Z,35.35
2022-11-05T12:55:23.015Z,28.20
2022-11-05T12:57:53.439Z,28.98
2022-11-05T13:00:23.965Z,38.50
2022-11-05T13:02:53.738Z,59.47
2022-11-05T13:05:23.379Z,32.45
2022-11-05T13:07:54.935Z,27.30
2022-11-05T13:10:26.114Z,32.97
2022-11-05T13:12:59.363Z,29.42
2022-11-05T13:15:30.493Z,31.23
2022-11-05T13:17:59.875Z,29.58
2022-11-05T13:20:28.402Z,33.30
2022-11-05T13:22:58.116Z,32.10
2022-11-05T13:25:26.654Z,29.90
2022-11-05T13:27:57.499Z,36.30
2022-11-05T13:30:26.568Z,26.88
2022-11-05T13:32:57.166Z,29.90
2022-11-05T13:35:26.959Z,39.25
2022-11-05T13:38:13.535Z,37.33
2022-11-05T13:40:45.703Z,30.00
2022-11-05T13:43:19.368Z,28.00
2022-11-05T13:46:06.138Z,28.80
2022-11-05T13:48:49.717Z,37.08
2022-11-05T13:51:29.248Z,28.70
2022-11-05T13:54:04.713Z,32.28
2022-11-05T13:56:38.002Z,27.88
2022-11-05T13:59:11.810Z,29.10
2022-11-05T14:01:44.086Z,30.33
2022-11-05T14:04:20.986Z,31.33
2022-11-05T14:06:51.019Z,34.13
2022-11-05T14:09:20.980Z,34.97
2022-11-05T14:11:50.755Z,30.83
2022-11-05T14:14:19.731Z,32.17
2022-11-05T14:16:49.414Z,28.60
2022-11-05T14:19:35.914Z,38.88
2022-11-05T14:22:18.320Z,30.83
2022-11-05T14:24:47.350Z,31.60
2022-11-05T14:27:50.520Z,28.55
2022-11-05T14:30:40.833Z,35.97
2022-11-05T14:33:15.635Z,37.90
2022-11-05T14:35:44.494Z,31.65
2022-11-05T14:38:20.122Z,36.42
2022-11-05T14:40:47.939Z,33.90
2022-11-05T14:43:20.749Z,36.90
2022-11-05T14:45:55.336Z,34.42
2022-11-05T14:48:28.288Z,30.80
2022-11-05T14:50:58.166Z,33.78
2022-11-05T14:53:28.328Z,35.90
2022-11-05T14:56:00.881Z,35.45
2022-11-05T14:58:29.885Z,30.75
2022-11-05T15:00:58.022Z,29.17
2022-11-05T15:03:33.536Z,29.90
2022-11-05T15:06:20.014Z,31.35
2022-11-05T15:08:59.444Z,32.08
2022-11-05T15:11:34.345Z,32.30
2022-11-05T15:14:04.603Z,29.63
2022-11-05T15:16:34.398Z,35.80
2022-11-05T15:19:03.117Z,34.13
2022-11-05T15:21:33.096Z,33.38
2022-11-05T15:24:02.417Z,26.17
2022-11-05T15:26:37.340Z,30.23
2022-11-05T15:29:14.960Z,30.92
2022-11-05T15:31:45.381Z,34.05
2022-11-05T15:34:17.433Z,29.65
2022-11-05T15:36:50.700Z,36.90
2022-11-05T15:39:39.223Z,38.90
2022-11-05T15:42:07.872Z,33.83
2022-11-05T15:44:39.520Z,31.00
2022-11-05T15:47:17.894Z,42.22
2022-11-05T15:49:46.164Z,35.45
2022-11-05T15:52:19.070Z,33.67
2022-11-05T15:54:46.719Z,35.25
2022-11-05T15:57:19.831Z,34.42
2022-11-05T15:59:47.952Z,40.20
2022-11-05T16:02:30.419Z,37.08
2022-11-05T16:04:58.650Z,49.88
2022-11-05T16:07:28.642Z,44.15
2022-11-05T16:09:57.727Z,49.95
2022-11-05T16:12:32.957Z,48.53
2022-11-05T16:15:01.916Z,47.08
2022-11-05T16:17:31.890Z,45.95
2022-11-05T16:19:59.529Z,42.90
2022-11-05T16:22:44.808Z,41.10
2022-11-05T16:25:22.720Z,43.55
2022-11-05T16:27:50.803Z,52.15
2022-11-05T16:30:21.641Z,56.45
2022-11-05T16:32:49.914Z,39.65
2022-11-05T16:35:23.220Z,46.60
2022-11-05T16:37:53.235Z,47.17
2022-11-05T16:40:22.345Z,56.10
2022-11-05T16:42:51.510Z,48.70
2022-11-05T16:45:20.103Z,47.50
2022-11-05T16:47:48.055Z,45.83
2022-11-05T16:50:20.677Z,51.50
2022-11-05T16:52:48.637Z,51.53
2022-11-05T16:55:17.855Z,65.13
2022-11-05T16:57:46.513Z,50.25
2022-11-05T17:00:15.550Z,52.15
2022-11-05T17:02:43.358Z,53.08
2022-11-05T17:05:16.959Z,57.80
2022-11-05T17:07:44.545Z,48.72
2022-11-05T17:10:12.187Z,54.70
2022-11-05T17:12:41.942Z,59.10
2022-11-05T17:15:16.607Z,46.28
2022-11-05T17:17:44.139Z,54.38
2022-11-05T17:20:14.117Z,56.17
2022-11-05T17:22:41.658Z,63.38
2022-11-05T17:25:09.680Z,46.50
2022-11-05T17:27:37.197Z,47.03
2022-11-05T17:30:06.841Z,59.38
2022-11-05T17:32:34.456Z,44.17
2022-11-05T17:35:02.067Z,59.13
2022-11-05T17:37:29.564Z,63.40
2022-11-05T17:39:57.041Z,53.42
2022-11-05T17:42:24.643Z,56.17
2022-11-05T17:44:52.274Z,45.58
2022-11-05T17:47:21.438Z,61.35
2022-11-05T17:49:48.994Z,53.30
2022-11-05T17:52:16.549Z,56.15
2022-11-05T17:54:44.557Z,48.60
2022-11-05T17:57:12.047Z,50.63
2022-11-05T17:59:39.626Z,67.65
2022-11-05T18:02:07.584Z,63.15
2022-11-05T18:04:36.510Z,58.55
2022-11-05T18:07:04.028Z,49.90
2022-11-05T18:09:31.555Z,59.42
2022-11-05T18:11:59.146Z,62.20
2022-11-05T18:14:26.636Z,56.42
2022-11-05T18:16:55.486Z,64.57
2022-11-05T18:19:23.132Z,56.85
2022-11-05T18:21:51.946Z,69.93
2022-11-05T18:24:19.464Z,59.63
2022-11-05T18:26:47.128Z,58.55
2022-11-05T18:29:14.622Z,63.83
2022-11-05T18:31:42.373Z,74.40
2022-11-05T18:34:10.454Z,52.92
2022-11-05T18:36:38.251Z,60.88
2022-11-05T18:39:08.559Z,58.05
2022-11-05T18:41:36.071Z,50.75
2022-11-05T18:44:04.284Z,57.28
2022-11-05T18:49:20.076Z,59.42
2022-11-05T18:51:47.635Z,51.13
2022-11-05T18:54:16.808Z,54.25
2022-11-05T18:56:46.056Z,63.20
2022-11-05T18:59:37.795Z,52.75
2022-11-05T19:02:01.643Z,56.95
2022-11-05T19:04:30.936Z,54.58
2022-11-05T19:07:03.321Z,60.58
2022-11-05T19:09:33.876Z,55.85
2022-11-05T19:12:01.424Z,57.42
2022-11-05T19:14:31.079Z,65.85
2022-11-05T19:16:58.763Z,52.90
2022-11-05T19:19:26.622Z,54.88
2022-11-05T19:21:54.272Z,50.97
2022-11-05T19:24:24.904Z,50.80
2022-11-05T19:26:53.930Z,42.92
2022-11-05T19:29:22.454Z,47.80
2022-11-05T19:31:50.272Z,45.75
2022-11-05T19:34:17.812Z,43.20
2022-11-05T19:36:45.313Z,42.88
2022-11-05T19:39:14.689Z,45.60
2022-11-05T19:41:42.828Z,40.05
2022-11-05T19:44:12.336Z,45.95
2022-11-05T19:46:39.812Z,49.20
2022-11-05T19:49:07.314Z,42.83
2022-11-05T19:51:34.816Z,45.70
2022-11-05T19:54:03.601Z,45.75
2022-11-05T19:56:32.198Z,39.38
2022-11-05T19:59:00.071Z,44.10
2022-11-05T20:01:29.364Z,39.95
2022-11-05T20:03:58.325Z,44.38
2022-11-05T20:06:28.650Z,49.53
2022-11-05T20:11:46.379Z,41.53
2022-11-05T20:14:13.934Z,49.30
2022-11-05T20:16:44.025Z,53.60
2022-11-05T20:19:12.571Z,39.53
2022-11-05T20:21:40.304Z,49.97
2022-11-05T20:24:08.051Z,46.72
2022-11-05T20:26:36.049Z,45.38
2022-11-05T20:29:03.666Z,52.53
2022-11-05T20:31:31.391Z,47.95
2022-11-05T20:34:00.268Z,49.72
2022-11-05T20:36:27.888Z,33.08
2022-11-05T20:38:56.526Z,47.65
2022-11-05T20:41:24.391Z,40.97
2022-11-05T20:43:52.270Z,49.75
2022-11-05T20:46:21.047Z,52.90
2022-11-05T20:48:48.782Z,49.80
2022-11-05T20:51:18.803Z,42.22
2022-11-05T20:53:46.944Z,51.45
2022-11-05T20:56:18.656Z,53.63
2022-11-05T20:58:46.216Z,53.28
2022-11-05T21:01:15.650Z,53.55
2022-11-05T21:03:49.903Z,49.92
2022-11-05T21:08:47.941Z,41.15
2022-11-05T21:11:15.803Z,47.63
2022-11-05T21:13:43.549Z,66.50
2022-11-05T21:16:16.835Z,50.53
2022-11-05T21:18:45.603Z,49.20
2022-11-05T21:21:15.453Z,54.92
2022-11-05T21:23:43.061Z,46.80
2022-11-05T21:26:12.944Z,49.03
2022-11-05T21:28:41.343Z,59.72
2022-11-05T21:31:10.221Z,58.25
2022-11-05T21:33:38.339Z,44.17
2022-11-05T21:36:07.365Z,58.55
2022-11-05T21:38:36.631Z,45.75
2022-11-05T21:41:04.654Z,62.03
2022-11-05T21:43:33.866Z,56.53
2022-11-05T21:46:01.908Z,52.88
2022-11-05T21:48:29.454Z,63.85
2022-11-05T21:51:14.296Z,85.57
2022-11-05T21:53:59.256Z,55.03
2022-11-05T21:56:45.259Z,58.05
2022-11-05T21:59:32.639Z,59.25
2022-11-05T22:02:02.502Z,63.80
2022-11-05T22:04:30.472Z,60.15
2022-11-05T22:06:58.170Z,60.35
2022-11-05T22:09:25.958Z,57.35
2022-11-05T22:11:54.025Z,58.85
2022-11-05T22:14:25.546Z,59.85
2022-11-05T22:17:15.024Z,56.50
2022-11-05T22:19:55.260Z,52.00
2022-11-05T22:22:23.300Z,54.33
2022-11-05T22:24:51.071Z,66.75
2022-11-05T22:27:20.554Z,61.45
2022-11-05T22:32:58.542Z,60.17
2022-11-05T22:35:26.136Z,53.20
2022-11-05T22:37:53.627Z,60.38
2022-11-05T22:40:23.817Z,59.38
2022-11-05T22:42:51.670Z,56.08
2022-11-05T22:45:20.464Z,63.03
2022-11-05T22:47:48.092Z,51.13
2022-11-05T22:50:16.980Z,59.22
2022-11-05T22:52:44.450Z,60.58
2022-11-05T22:55:11.996Z,59.72
2022-11-05T22:57:39.481Z,64.30
2022-11-05T23:00:13.364Z,64.07
2022-11-05T23:02:40.959Z,63.55
2022-11-05T23:05:08.832Z,58.95
2022-11-05T23:07:55.835Z,57.72
2022-11-05T23:10:41.146Z,51.65
2022-11-05T23:13:08.713Z,56.97
2022-11-05T23:15:53.581Z,54.45
2022-11-05T23:18:38.592Z,51.60
2022-11-05T23:21:23.413Z,55.65
2022-11-05T23:24:07.370Z,55.90
2022-11-05T23:26:50.962Z,58.53
2022-11-05T23:29:18.583Z,54.92
2022-11-05T23:32:03.414Z,60.25
2022-11-05T23:34:31.155Z,52.67
2022-11-05T23:37:16.192Z,56.10
2022-11-05T23:39:45.001Z,55.30
2022-11-05T23:42:30.071Z,67.32
2022-11-05T23:45:15.109Z,52.85
2022-11-05T23:48:00.321Z,63.10
2022-11-05T23:50:28.035Z,68.38
2022-11-05T23:52:55.606Z,53.92
2022-11-05T23:55:25.242Z,56.95
2022-11-05T23:57:52.746Z,57.00
